• Join FlightAware (Why Join?)
  • Login
  • US Flag 
12:57PM EDT


 

Airport Tracker/Info


-or-


 

Live Flight TrackerFlight Track Log ✈ SVA1669 ✈ 11-Jul-2013 ✈ OERK / RUH - OEAB / AHB

Flight Track Log - Related Links

Times and Time Zones

All times are in EDT time to prevent confusion due to time zone crossing. See the SVA1669 flight status page for this flight to view local times or setup timezone preferences in your user account.

Time Position Orientation Groundspeed Altitude Reporting Facility
EDT Latitude Longitude Course Direction KTS MPH feet Rate Location/Type
04:06PM 24.9570 46.7080 295° West 2 2  Level FlightAware
04:08PM 24.9580 46.7070 318° Northwest 18 21 180 Level FlightAware
04:09PM 24.9600 46.7060 336° Northwest 15 17 240 Level FlightAware
04:09PM 24.9620 46.7050 336° Northwest 20 23 300 Level FlightAware
04:10PM 24.9650 46.7030 329° Northwest 19 22 300 Level FlightAware
04:10PM 24.9660 46.7030 360° North 19 22 300 Level FlightAware
04:10PM 24.9680 46.7010 318° Northwest 22 25 360 Level FlightAware
04:11PM 24.9700 46.7000 336° Northwest 14 16 360 Level FlightAware
04:12PM 24.9720 46.6990 336° Northwest 15 17 420 Level FlightAware
04:12PM 24.9740 46.6980 336° Northwest 12 14 480 Level FlightAware
04:13PM 24.9750 46.6990 42° Northeast 16 18 540 Level FlightAware
04:13PM 24.9760 46.7000 42° Northeast 3 3 600 Level FlightAware
04:15PM 24.9760 46.7010 90° East 8 9 660 Level FlightAware
04:16PM 24.9750 46.7030 119° Southeast 56 64 1,800 Level FlightAware
04:16PM 24.9590 46.7130 150° Southeast 168 193 2,300 3,000 Climbing FlightAware
04:17PM 24.9420 46.7240 150° Southeast 191 220 2,800 1,980 Climbing FlightAware
04:17PM 24.9260 46.7340 150° Southeast 184 212 3,800 2,520 Climbing FlightAware
04:17PM 24.9130 46.7400 157° South 182 209 4,300 1,200 Climbing FlightAware
04:17PM 24.9040 46.7410 174° South 193 222 4,300 180 Level FlightAware
04:18PM 24.8860 46.7320 204° Southwest 225 259 4,400 660 Climbing FlightAware
04:18PM 24.8740 46.7220 217° Southwest 248 285 4,700 1,500 Climbing FlightAware
04:19PM 24.8440 46.6960 218° Southwest 271 312 5,500 1,680 Climbing FlightAware
04:19PM 24.8190 46.6740 219° Southwest 271 312 6,300 2,100 Climbing FlightAware
04:19PM 24.7870 46.6470 217° Southwest 284 327 7,500 2,160 Climbing FlightAware
04:20PM 24.7610 46.6240 219° Southwest 291 335 8,300 2,040 Climbing FlightAware
04:20PM 24.7290 46.5960 218° Southwest 292 336 9,400 2,100 Climbing FlightAware
04:21PM 24.6840 46.5570 218° Southwest 313 360 10,800 1,800 Climbing FlightAware
04:22PM 24.6370 46.5170 218° Southwest 329 379 11,800 1,800 Climbing FlightAware
04:22PM 24.5860 46.4730 218° Southwest 336 387 13,300 2,220 Climbing FlightAware
04:23PM 24.5360 46.4300 218° Southwest 349 402 14,800 2,220 Climbing FlightAware
04:24PM 24.4910 46.3910 218° Southwest 349 402 16,200 2,040 Climbing FlightAware
04:24PM 24.4400 46.3470 218° Southwest 354 407 17,400 1,620 Climbing FlightAware
04:25PM 24.3850 46.3000 218° Southwest 369 425 18,300 1,380 Climbing FlightAware
04:26PM 24.3230 46.2470 218° Southwest 386 444 19,400 1,380 Climbing FlightAware
04:26PM 24.2730 46.2040 218° Southwest 390 449 20,200 1,380 Climbing FlightAware
04:27PM 24.2060 46.1470 218° Southwest 397 457 21,300 1,500 Climbing FlightAware
04:28PM 24.1560 46.1040 218° Southwest 406 467 22,200 1,320 Climbing FlightAware
04:28PM 24.0940 46.0510 218° Southwest 411 473 23,000 1,260 Climbing FlightAware
04:29PM 24.0340 46.0000 218° Southwest 414 476 23,900 1,320 Climbing FlightAware
04:30PM 23.9710 45.9470 218° Southwest 425 489 24,800 1,200 Climbing FlightAware
04:30PM 23.9010 45.8870 218° Southwest 433 498 25,600 1,200 Climbing FlightAware
04:31PM 23.8290 45.8260 218° Southwest 431 496 26,600 1,200 Climbing FlightAware
04:32PM 23.7630 45.7710 217° Southwest 436 502 27,300 1,020 Climbing FlightAware
04:32PM 23.6980 45.7150 218° Southwest 446 513 28,000 1,020 Climbing FlightAware
04:33PM 23.6390 45.6660 217° Southwest 452 520 28,600 960 Climbing FlightAware
04:34PM 23.5640 45.6020 218° Southwest 452 520 29,300 1,020 Climbing FlightAware
04:34PM 23.4960 45.5450 218° Southwest 452 520 30,100 1,020 Climbing FlightAware
04:35PM 23.4270 45.4870 218° Southwest 464 534 30,700 900 Climbing FlightAware
04:36PM 23.3580 45.4290 218° Southwest 457 526 31,400 960 Climbing FlightAware
04:36PM 23.2900 45.3720 218° Southwest 455 524 32,000 420 Climbing FlightAware
04:37PM 23.2150 45.3080 218° Southwest 453 521 32,000  Level FlightAware
04:38PM 23.1550 45.2570 218° Southwest 453 521 32,000  Level FlightAware
04:39PM 23.0890 45.2010 218° Southwest 453 521 32,000  Level FlightAware
04:39PM 23.0260 45.1470 218° Southwest 453 521 32,000  Level FlightAware
04:40PM 22.9160 45.0540 218° Southwest 451 519 32,000  Level FlightAware
04:41PM 22.8280 44.9790 218° Southwest 451 519 32,000  Level FlightAware
04:42PM 22.7770 44.9360 218° Southwest 451 519 32,000  Level FlightAware
04:43PM 22.6920 44.8640 218° Southwest 451 519 32,000  Level FlightAware
04:44PM 22.5840 44.7730 218° Southwest 453 521 32,000  Level FlightAware
04:44PM 22.5100 44.7110 218° Southwest 454 522 32,000  Level FlightAware
04:45PM 22.4600 44.6680 218° Southwest 454 522 32,000  Level FlightAware
04:46PM 22.3910 44.6100 218° Southwest 454 522 32,000  Level FlightAware
04:46PM 22.3400 44.5670 218° Southwest 454 522 32,000  Level FlightAware
04:47PM 22.2880 44.5230 218° Southwest 454 522 32,000  Level FlightAware
04:48PM 22.2040 44.4520 218° Southwest 454 522 32,000  Level FlightAware
04:49PM 22.1530 44.4090 218° Southwest 454 522 32,000  Level FlightAware
04:49PM 22.1020 44.3660 218° Southwest 454 522 32,000  Level FlightAware
04:50PM 22.0350 44.3090 218° Southwest 454 522 32,000  Level FlightAware
04:51PM 21.9840 44.2670 217° Southwest 454 522 32,000  Level FlightAware
04:51PM 21.9170 44.2100 218° Southwest 454 522 32,000  Level FlightAware
04:52PM 21.8660 44.1670 218° Southwest 454 522 32,000  Level FlightAware
04:53PM 21.7820 44.0960 218° Southwest 454 522 32,000  Level FlightAware
04:54PM 21.7310 44.0530 218° Southwest 454 522 32,000  Level FlightAware
04:56PM 21.5731 43.9883 201° Southwest  Level Estimated
04:57PM 21.4886 43.9537 201° Southwest  Level Estimated
04:58PM 21.4040 43.9192 201° Southwest  Level Estimated
04:59PM 21.3194 43.8847 201° Southwest  Level Estimated
05:00PM 21.2348 43.8502 201° Southwest  Level Estimated
05:01PM 21.1502 43.8158 201° Southwest  Level Estimated
05:02PM 21.0656 43.7814 201° Southwest  Level Estimated
05:03PM 20.9810 43.7470 201° Southwest  Level Estimated
05:04PM 20.8963 43.7127 201° Southwest  Level Estimated
05:05PM 20.8117 43.6785 201° Southwest  Level Estimated
05:06PM 20.7271 43.6442 201° Southwest  Level Estimated
05:07PM 20.6424 43.6100 201° Southwest  Level Estimated
05:08PM 20.5578 43.5759 201° Southwest  Level Estimated
05:09PM 20.4731 43.5418 201° Southwest  Level Estimated
05:10PM 20.3884 43.5077 201° Southwest  Level Estimated
05:11PM 20.3038 43.4737 201° Southwest  Level Estimated
05:12PM 20.2191 43.4397 201° Southwest  Level Estimated
05:13PM 20.1344 43.4057 201° Southwest  Level Estimated
05:14PM 20.0497 43.3717 201° Southwest  Level Estimated
05:15PM 19.9650 43.3379 201° Southwest  Level Estimated
05:16PM 19.8803 43.3040 201° Southwest  Level Estimated
05:17PM 19.7956 43.2702 201° Southwest  Level Estimated
05:18PM 19.7109 43.2364 201° Southwest  Level Estimated
05:19PM 19.6262 43.2026 201° Southwest  Level Estimated
05:20PM 19.5414 43.1689 201° Southwest  Level Estimated
05:21PM 19.4567 43.1353 201° Southwest  Level Estimated
05:22PM 19.3720 43.1016 201° Southwest  Level Estimated
05:23PM 19.2872 43.0680 201° Southwest  Level Estimated
05:24PM 19.2025 43.0344 201° Southwest  Level Estimated
05:25PM 19.1177 43.0009 201° Southwest  Level Estimated
05:26PM 19.0329 42.9674 200° South  Level Estimated
05:27PM 18.9482 42.9339 200° South  Level Estimated
05:28PM 18.8634 42.9005 200° South  Level Estimated
05:29PM 18.7786 42.8671 200° South  Level Estimated
05:30PM 18.6938 42.8337 200° South  Level Estimated
05:31PM 18.6090 42.8004 200° South  Level Estimated
05:32PM 18.5242 42.7671 200° South  Level Estimated
05:33PM 18.4394 42.7338 200° South  Level Estimated
05:34PM 18.3546 42.7006 200° South  Level Estimated
05:35PM 18.2698 42.6674 200° South  Level Estimated
05:36PM 18.2401 42.6557 200° South  Level Estimated
05:37PM 18.2401 42.6557 113° Southeast  Level Estimated
05:38PM 18.2401 42.6557 113° Southeast  Level Estimated